Time;durP1;ratioP1;P1;durP2;ratioP2;P2;SDS_P1;SDS_P2;PMS_P1;PMS_P2;Temp;Humidity;BMP_temperature;BMP_pressure;BME280_temperature;BME280_humidity;BME280_pressure;Samples;Min_cycle;Max_cycle;Signal;HPM_P1;HPM_P2
2022/05/26 00:01:50;;;;;;;;;4.00;1.00;;;;;18.06;100.00;101722.16;5003048;28;45310;-70
2022/05/26 00:04:16;;;;;;;;;1.00;1.00;;;;;18.04;100.00;101727.09;5010046;28;45796;-76
2022/05/26 00:06:41;;;;;;;;;1.00;1.00;;;;;18.01;100.00;101724.81;4994631;28;45427;-77
2022/05/26 00:09:07;;;;;;;;;2.00;1.00;;;;;17.97;100.00;101723.56;5010574;28;45802;-69
2022/05/26 00:11:35;;;;;;;;;1.00;1.00;;;;;17.96;100.00;101733.84;5004831;28;45432;-68
2022/05/26 00:14:07;;;;;;;;;1.33;1.33;;;;;17.94;100.00;101726.81;5000870;28;45406;-71
2022/05/26 00:16:44;;;;;;;;;2.00;2.00;;;;;17.90;100.00;101733.91;5010431;28;46745;-69
2022/05/26 00:19:12;;;;;;;;;1.00;1.00;;;;;17.87;100.00;101740.72;5001468;28;45441;-74
2022/05/26 00:21:37;;;;;;;;;2.00;1.00;;;;;17.80;100.00;101735.28;5002156;28;45326;-77
2022/05/26 00:24:04;;;;;;;;;3.00;1.00;;;;;17.71;100.00;101736.69;5002159;28;45687;-78
2022/05/26 00:26:29;;;;;;;;;2.33;0.00;;;;;17.67;100.00;101732.66;5011621;28;45409;-71
2022/05/26 00:28:55;;;;;;;;;1.00;1.00;;;;;17.61;100.00;101736.38;5008916;28;45494;-68
2022/05/26 00:31:21;;;;;;;;;0.67;0.67;;;;;17.54;100.00;101736.44;4998406;28;45423;-77
2022/05/26 00:33:47;;;;;;;;;2.33;0.67;;;;;17.49;100.00;101743.78;5013970;28;45515;-77
2022/05/26 00:36:15;;;;;;;;;0.33;0.33;;;;;17.44;100.00;101742.53;5001077;28;45708;-77
2022/05/26 00:38:41;;;;;;;;;1.00;0.00;;;;;17.39;100.00;101742.38;5013881;28;45651;-78
2022/05/26 00:41:13;;;;;;;;;3.33;2.00;;;;;17.41;100.00;101758.78;5006132;28;45430;-76
2022/05/26 00:43:43;;;;;;;;;1.00;1.00;;;;;17.44;100.00;101753.63;4999710;28;45763;-76
2022/05/26 00:46:18;;;;;;;;;2.00;2.00;;;;;17.44;100.00;101759.19;5013651;28;45785;-77
2022/05/26 00:48:55;;;;;;;;;3.00;2.00;;;;;17.46;100.00;101751.47;5012379;28;45442;-70
2022/05/26 00:51:27;;;;;;;;;2.00;2.00;;;;;17.52;100.00;101748.88;5012621;28;45825;-77
2022/05/26 00:53:55;;;;;;;;;3.00;0.33;;;;;17.53;100.00;101747.75;4996997;28;47324;-76
2022/05/26 00:56:52;;;;;;;;;0.33;0.33;;;;;17.58;100.00;101756.25;5005563;28;47185;-70
2022/05/26 00:59:35;;;;;;;;;1.00;1.00;;;;;17.60;100.00;101751.31;5016020;28;45441;-77
2022/05/26 01:02:01;;;;;;;;;1.00;1.00;;;;;17.63;100.00;101753.63;5012117;28;45795;-76
2022/05/26 01:04:34;;;;;;;;;2.67;1.00;;;;;17.63;100.00;101761.94;5000571;28;45871;-76
2022/05/26 01:07:25;;;;;;;;;0.00;0.00;;;;;17.67;100.00;101756.81;5013043;28;45478;-78
2022/05/26 01:09:52;;;;;;;;;0.33;0.33;;;;;17.68;100.00;101750.16;4999566;28;45371;-77
2022/05/26 01:12:17;;;;;;;;;1.00;1.00;;;;;17.65;100.00;101763.41;5014115;28;45559;-77
2022/05/26 01:14:58;;;;;;;;;0.00;0.00;;;;;17.63;100.00;101751.72;5013662;28;45652;-77
2022/05/26 01:17:42;;;;;;;;;0.33;0.00;;;;;17.66;100.00;101755.94;4989723;28;46318;-75
2022/05/26 01:20:31;;;;;;;;;1.00;1.00;;;;;17.63;100.00;101754.50;5012662;28;45346;-76
2022/05/26 01:23:27;;;;;;;;;0.00;0.00;;;;;17.63;100.00;101775.81;5012198;28;45260;-77
2022/05/26 01:26:24;;;;;;;;;0.00;0.00;;;;;17.59;100.00;101771.81;5001460;28;46258;-78
2022/05/26 01:29:27;;;;;;;;;0.00;0.00;;;;;17.51;100.00;101780.44;5000800;28;46019;-76
2022/05/26 01:32:28;;;;;;;;;0.00;0.00;;;;;17.46;100.00;101787.53;5006837;28;45361;-76
2022/05/26 01:35:05;;;;;;;;;0.00;0.00;;;;;17.44;100.00;101786.03;5008095;28;45813;-77
2022/05/26 01:37:47;;;;;;;;;2.00;0.67;;;;;17.41;100.00;101780.97;4990791;28;45714;-77
2022/05/26 01:40:13;;;;;;;;;0.33;0.33;;;;;17.39;100.00;101795.06;5014135;28;45729;-67
2022/05/26 01:42:54;;;;;;;;;0.67;0.67;;;;;17.32;100.00;101794.31;5010861;28;45597;-69
2022/05/26 01:45:53;;;;;;;;;1.33;1.33;;;;;17.32;100.00;101787.88;5005399;28;45881;-69
2022/05/26 01:48:29;;;;;;;;;1.00;1.00;;;;;17.32;100.00;101788.75;5112008;23;46617;-70
2022/05/26 01:51:07;;;;;;;;;2.00;1.00;;;;;17.32;100.00;101788.75;4993227;28;45790;-78
2022/05/26 01:53:51;;;;;;;;;1.00;1.00;;;;;17.29;100.00;101783.66;4993892;28;45677;-69
2022/05/26 01:56:24;;;;;;;;;1.00;1.00;;;;;17.26;100.00;101784.09;4993667;28;45383;-68
2022/05/26 01:59:06;;;;;;;;;1.00;1.00;;;;;17.32;100.00;101802.63;4993540;28;46223;-77
2022/05/26 02:01:37;;;;;;;;;1.00;1.00;;;;;17.31;100.00;101792.59;4990987;28;45692;-77
2022/05/26 02:04:08;;;;;;;;;1.00;1.00;;;;;17.28;100.00;101791.13;4994256;28;45710;-78
2022/05/26 02:06:40;;;;;;;;;0.00;0.00;;;;;17.32;100.00;101788.75;4994363;28;45919;-78
2022/05/26 02:09:09;;;;;;;;;0.67;0.67;;;;;17.31;100.00;101798.13;4994168;28;45300;-78
2022/05/26 02:11:47;;;;;;;;;0.00;0.00;;;;;17.31;100.00;101798.13;4995594;28;45338;-70
2022/05/26 02:14:19;;;;;;;;;1.00;1.00;;;;;17.29;100.00;101786.44;4993836;28;45617;-77
2022/05/26 02:16:57;;;;;;;;;1.00;1.00;;;;;17.29;100.00;101803.06;4993812;28;45399;-68
2022/05/26 02:19:37;;;;;;;;;2.67;0.00;;;;;17.26;100.00;101807.13;4991981;28;47294;-69
2022/05/26 02:22:26;;;;;;;;;2.00;0.33;;;;;17.25;100.00;101810.97;4991808;28;46699;-68
2022/05/26 02:25:14;;;;;;;;;2.00;1.00;;;;;17.19;100.00;101811.91;4980964;28;45562;-76
2022/05/26 02:27:40;;;;;;;;;0.00;0.00;;;;;17.03;100.00;101807.75;4992022;28;45384;-77
2022/05/26 02:30:07;;;;;;;;;0.67;0.67;;;;;17.09;100.00;101825.41;4993902;28;45438;-69
2022/05/26 02:32:50;;;;;;;;;0.67;0.67;;;;;16.95;100.00;101813.59;4992842;28;45399;-69
2022/05/26 02:35:25;;;;;;;;;2.00;2.00;;;;;16.92;100.00;101814.03;4992804;28;45600;-69
2022/05/26 02:37:55;;;;;;;;;1.00;1.00;;;;;16.88;100.00;101821.94;4984614;28;45411;-69
2022/05/26 02:40:21;;;;;;;;;1.67;1.00;;;;;16.84;100.00;101817.03;4991973;28;45907;-68
2022/05/26 02:42:57;;;;;;;;;1.00;1.00;;;;;16.80;100.00;101824.13;4992028;28;47714;-68
2022/05/26 02:45:55;;;;;;;;;2.00;0.00;;;;;16.76;100.00;101832.88;4993231;28;45848;-68
2022/05/26 02:48:42;;;;;;;;;1.00;1.00;;;;;16.71;100.00;101827.16;5000768;28;45358;-69
2022/05/26 02:51:15;;;;;;;;;0.00;0.00;;;;;16.72;100.00;101834.41;5005019;28;45962;-69
2022/05/26 02:53:54;;;;;;;;;0.00;0.00;;;;;16.63;100.00;101829.34;5011868;28;45355;-76
2022/05/26 02:56:41;;;;;;;;;0.67;0.00;;;;;16.65;100.00;101833.59;5005324;28;45691;-75
2022/05/26 02:59:33;;;;;;;;;0.33;0.33;;;;;16.63;100.00;101830.22;4993159;28;45510;-76
2022/05/26 03:02:24;;;;;;;;;0.00;0.00;;;;;16.62;100.00;101828.50;5010982;28;45383;-75
2022/05/26 03:05:05;;;;;;;;;1.67;1.33;;;;;16.66;100.00;101832.53;4995120;28;47439;-69
2022/05/26 03:07:34;;;;;;;;;1.67;1.00;;;;;16.67;100.00;101828.66;5011792;28;45749;-70
2022/05/26 03:10:03;;;;;;;;;0.00;0.00;;;;;16.64;100.00;101836.59;5011671;28;45623;-71
2022/05/26 03:12:33;;;;;;;;;0.00;0.00;;;;;16.59;100.00;101835.31;5011852;28;45501;-73
2022/05/26 03:14:58;;;;;;;;;1.00;0.00;;;;;16.53;100.00;101841.75;5011111;28;46200;-73
2022/05/26 03:17:23;;;;;;;;;1.67;0.00;;;;;16.54;100.00;101837.94;4993831;28;45652;-72
2022/05/26 03:19:49;;;;;;;;;0.00;0.00;;;;;16.49;100.00;101834.13;5011027;28;45698;-72
2022/05/26 03:22:15;;;;;;;;;0.33;0.33;;;;;16.39;100.00;101841.00;4992593;28;47219;-72
2022/05/26 03:24:41;;;;;;;;;0.00;0.00;;;;;16.41;100.00;101832.47;5011396;28;45725;-69
2022/05/26 03:27:07;;;;;;;;;0.00;0.00;;;;;16.35;100.00;101822.28;5009264;28;45632;-68
2022/05/26 03:29:32;;;;;;;;;0.00;0.00;;;;;16.31;100.00;101821.84;4994135;28;45759;-66
2022/05/26 03:31:58;;;;;;;;;0.00;0.00;;;;;16.30;100.00;101825.72;5012118;28;45438;-69
2022/05/26 03:42:41;;;;;;;;;0.00;0.00;;;;;16.32;100.00;101833.78;5012095;28;45643;-76
2022/05/26 03:45:07;;;;;;;;;1.00;0.00;;;;;16.36;100.00;101840.56;5011567;28;45644;-76
2022/05/26 03:47:33;;;;;;;;;0.00;0.00;;;;;16.40;100.00;101841.81;4994690;28;46609;-77
2022/05/26 03:49:58;;;;;;;;;0.00;0.00;;;;;16.43;100.00;101835.84;5012097;28;45400;-75
2022/05/26 03:52:24;;;;;;;;;0.00;0.00;;;;;16.48;100.00;101843.47;5011303;28;45348;-75
2022/05/26 03:54:50;;;;;;;;;0.00;0.00;;;;;16.46;100.00;101852.00;5012156;28;45726;-75
2022/05/26 03:57:25;;;;;;;;;0.00;0.00;;;;;16.50;100.00;101850.50;5011344;28;45769;-76
2022/05/26 03:59:50;;;;;;;;;0.00;0.00;;;;;16.54;100.00;101850.91;4992734;28;45679;-69
2022/05/26 04:02:17;;;;;;;;;0.33;0.00;;;;;16.57;100.00;101854.09;5014486;28;45422;-69
2022/05/26 04:04:42;;;;;;;;;1.33;1.00;;;;;16.58;100.00;101854.94;5013266;28;45966;-69
2022/05/26 04:07:08;;;;;;;;;0.00;0.00;;;;;16.58;100.00;101855.78;5013431;28;45636;-70
2022/05/26 04:09:33;;;;;;;;;0.00;0.00;;;;;16.58;100.00;101850.22;5013792;28;45820;-71
2022/05/26 04:11:59;;;;;;;;;0.00;0.00;;;;;16.60;100.00;101869.41;5010655;28;45849;-70
2022/05/26 04:14:24;;;;;;;;;0.00;0.00;;;;;16.65;100.00;101871.53;5010229;28;45876;-68
2022/05/26 04:16:50;;;;;;;;;0.00;0.00;;;;;16.66;100.00;101873.22;5013463;28;45885;-70
2022/05/26 04:19:15;;;;;;;;;0.00;0.00;;;;;16.64;100.00;101875.38;5013571;28;45943;-68
2022/05/26 04:22:15;;;;;;;;;0.00;0.00;;;;;16.69;100.00;101868.09;4987264;28;45714;-77
2022/05/26 04:24:26;;;;;;;;;1.00;1.00;;;;;16.67;100.00;101867.44;5012189;28;46027;-79
2022/05/26 04:26:51;;;;;;;;;0.33;0.00;;;;;16.70;100.00;101869.78;5014655;28;45327;-76
2022/05/26 04:29:17;;;;;;;;;0.33;0.00;;;;;16.74;100.00;101876.56;5014674;28;45469;-76
2022/05/26 04:31:42;;;;;;;;;1.00;1.00;;;;;16.74;100.00;101876.56;5014831;28;45366;-75
2022/05/26 04:34:08;;;;;;;;;0.00;0.00;;;;;16.74;100.00;101873.81;5015301;28;46220;-74
2022/05/26 04:36:33;;;;;;;;;1.00;1.00;;;;;16.76;100.00;101879.13;5014707;28;45665;-76
2022/05/26 04:38:59;;;;;;;;;2.33;1.00;;;;;16.77;100.00;101878.91;5014903;28;45288;-67
2022/05/26 04:41:24;;;;;;;;;2.67;0.33;;;;;16.81;100.00;101886.75;5013959;28;45355;-68
2022/05/26 04:43:49;;;;;;;;;2.67;1.00;;;;;16.84;100.00;101891.84;5010268;28;45352;-76
2022/05/26 04:46:17;;;;;;;;;1.00;1.00;;;;;16.88;100.00;101887.59;5013458;28;45344;-77
2022/05/26 04:48:43;;;;;;;;;0.00;0.00;;;;;16.94;100.00;101881.16;5013848;28;45733;-77
2022/05/26 04:51:09;;;;;;;;;2.33;1.33;;;;;17.02;100.00;101885.59;5013534;28;45554;-76
2022/05/26 04:53:34;;;;;;;;;2.00;0.33;;;;;17.06;100.00;101884.06;5014017;28;45604;-76
2022/05/26 04:55:59;;;;;;;;;2.00;1.00;;;;;17.10;100.00;101886.16;5015743;28;45816;-77
2022/05/26 04:58:25;;;;;;;;;1.00;1.00;;;;;17.15;100.00;101890.19;5014569;28;45970;-76
2022/05/26 05:00:50;;;;;;;;;1.00;1.00;;;;;17.19;100.00;101894.22;5007224;28;46255;-77
2022/05/26 05:03:19;;;;;;;;;1.00;1.00;;;;;17.24;100.00;101895.22;5009060;28;45673;-76
2022/05/26 05:05:45;;;;;;;;;1.00;1.00;;;;;17.18;100.00;101873.94;5013081;28;45851;-75
2022/05/26 05:08:10;;;;;;;;;0.33;0.00;;;;;17.32;100.00;101893.25;5010650;28;45422;-67
2022/05/26 05:10:35;;;;;;;;;1.33;0.00;;;;;17.29;100.00;101883.47;5012224;28;45317;-76
2022/05/26 05:13:02;;;;;;;;;2.00;0.67;;;;;17.42;100.00;101896.38;4995274;28;46166;-78
2022/05/26 05:15:38;;;;;;;;;0.00;0.00;;;;;17.44;100.00;101892.31;5012256;28;45428;-71
2022/05/26 05:18:03;;;;;;;;;1.00;1.00;;;;;17.52;100.00;101904.19;5006164;28;45705;-78
2022/05/26 05:20:29;;;;;;;;;1.00;1.00;;;;;17.59;100.00;101897.50;5009275;28;45782;-70
2022/05/26 05:23:02;;;;;;;;;6.00;1.00;;;;;17.67;100.00;101885.25;4997865;28;47956;-78
2022/05/26 05:25:33;;;;;;;;;1.67;1.67;;;;;17.73;100.00;101894.59;5008723;28;46026;-77
2022/05/26 05:28:02;;;;;;;;;1.00;1.00;;;;;17.77;100.00;101884.72;5014651;28;45846;-72
2022/05/26 05:30:40;;;;;;;;;1.00;1.00;;;;;17.82;100.00;101894.06;5007046;28;45620;-68
2022/05/26 05:33:12;;;;;;;;;0.00;0.00;;;;;17.88;100.00;101902.56;5003213;28;46731;-77
2022/05/26 05:36:01;;;;;;;;;0.00;0.00;;;;;17.85;100.00;101889.16;4995167;28;45670;-75
2022/05/26 05:38:27;;;;;;;;;1.50;0.00;;;;;18.01;100.00;101899.69;5008168;28;45770;-75
2022/05/26 05:40:53;;;;;;;;;0.33;0.00;;;;;18.07;100.00;101907.06;5012152;28;45529;-76
2022/05/26 05:43:18;;;;;;;;;0.33;0.33;;;;;18.10;100.00;101902.97;5016389;28;45372;-77
2022/05/26 05:45:45;;;;;;;;;0.33;0.33;;;;;18.18;100.00;101909.06;5010761;28;45430;-78
2022/05/26 05:48:10;;;;;;;;;0.00;0.00;;;;;18.25;100.00;101906.22;5008964;28;45836;-76
2022/05/26 05:50:36;;;;;;;;;0.00;0.00;;;;;18.33;100.00;101908.69;5006911;28;45802;-79
2022/05/26 05:53:01;;;;;;;;;1.67;0.00;;;;;18.30;100.00;101906.38;5005754;28;45782;-78
2022/05/26 05:55:29;;;;;;;;;0.00;0.00;;;;;18.36;100.00;101910.16;5007522;28;45703;-77
2022/05/26 05:57:55;;;;;;;;;0.33;0.33;;;;;18.52;100.00;101914.22;5008181;28;45834;-76
2022/05/26 06:00:20;;;;;;;;;0.00;0.00;;;;;18.68;100.00;101918.28;5013591;28;45982;-77
2022/05/26 06:02:46;;;;;;;;;2.67;1.33;;;;;18.78;100.00;101910.22;5011360;28;46490;-70
2022/05/26 06:05:12;;;;;;;;;0.00;0.00;;;;;18.96;100.00;101914.09;5012796;28;45825;-71
2022/05/26 06:07:40;;;;;;;;;2.00;0.00;;;;;19.10;100.00;101918.38;5004218;28;45986;-71
2022/05/26 06:10:08;;;;;;;;;1.33;0.33;;;;;19.14;100.00;101916.78;5007368;28;45901;-70
2022/05/26 06:12:34;;;;;;;;;1.00;1.00;;;;;19.27;100.00;101923.25;5001318;28;45903;-69
2022/05/26 06:15:00;;;;;;;;;3.00;1.00;;;;;19.39;100.00;101919.38;5004859;28;45789;-68
2022/05/26 06:17:25;;;;;;;;;0.00;0.00;;;;;19.51;100.00;101929.69;5008034;28;45477;-70
2022/05/26 06:19:51;;;;;;;;;2.00;0.00;;;;;19.66;100.00;101924.50;5007707;28;45689;-69
2022/05/26 06:22:20;;;;;;;;;1.00;1.00;;;;;19.69;100.00;101939.88;5009747;28;46040;-68
2022/05/26 06:24:47;;;;;;;;;0.00;0.00;;;;;19.63;100.00;101951.97;5009776;28;45774;-68
2022/05/26 06:30:03;;;;;;;;;0.00;0.00;;;;;19.72;100.00;101940.22;5011019;28;45610;-69
2022/05/26 06:38:00;;;;;;;;;0.00;0.00;;;;;20.52;100.00;101940.66;5002458;28;46054;-69
2022/05/26 06:40:28;;;;;;;;;1.00;1.00;;;;;20.67;100.00;101945.72;5009835;28;46133;-70
2022/05/26 06:42:55;;;;;;;;;3.00;0.00;;;;;21.09;100.00;101955.75;4990765;28;45755;-72
2022/05/26 06:45:22;;;;;;;;;1.00;0.00;;;;;21.72;100.00;101951.00;4992155;28;45609;-71
2022/05/26 06:47:48;;;;;;;;;0.00;0.00;;;;;22.25;100.00;101945.13;5008199;28;45461;-70
2022/05/26 06:50:14;;;;;;;;;0.33;0.33;;;;;22.37;100.00;101957.88;5009145;28;46620;-70
2022/05/26 06:52:40;;;;;;;;;0.00;0.00;;;;;22.20;100.00;101962.63;5005460;28;45505;-70
2022/05/26 06:55:07;;;;;;;;;0.00;0.00;;;;;22.00;100.00;101958.44;5011615;28;45872;-70
2022/05/26 06:57:32;;;;;;;;;0.33;0.00;;;;;21.73;100.00;101963.88;4993442;28;45446;-69
2022/05/26 06:59:59;;;;;;;;;0.00;0.00;;;;;21.57;100.00;101964.72;5009587;28;45505;-70
2022/05/26 07:02:25;;;;;;;;;0.00;0.00;;;;;21.31;100.00;101973.47;5011634;28;46421;-70
2022/05/26 07:04:51;;;;;;;;;0.67;0.67;;;;;21.14;100.00;101973.44;5012002;28;45463;-72
2022/05/26 07:07:17;;;;;;;;;0.00;0.00;;;;;21.08;100.00;101974.44;4989651;28;45769;-70
2022/05/26 07:09:43;;;;;;;;;0.00;0.00;;;;;21.18;100.00;101973.78;5012594;28;45509;-70
2022/05/26 07:12:09;;;;;;;;;3.67;0.00;;;;;21.57;100.00;101973.09;5012313;28;45440;-73
2022/05/26 07:14:35;;;;;;;;;0.33;0.33;;;;;22.16;100.00;101959.50;5006788;28;45650;-71
2022/05/26 07:17:07;;;;;;;;;0.00;0.00;;;;;22.88;100.00;101970.81;5012408;28;45691;-78
2022/05/26 07:19:38;;;;;;;;;2.00;1.00;;;;;23.87;100.00;101968.72;5012231;28;45406;-73
2022/05/26 07:22:07;;;;;;;;;0.75;0.00;;;;;24.18;100.00;101973.66;5011056;28;46236;-73
2022/05/26 07:24:32;;;;;;;;;2.00;0.00;;;;;24.26;100.00;101968.41;5011387;28;45515;-74
2022/05/26 07:27:00;;;;;;;;;0.00;0.00;;;;;24.24;100.00;101976.25;5011785;28;45693;-72
2022/05/26 07:29:25;;;;;;;;;1.00;0.00;;;;;24.17;100.00;101975.63;5011523;28;45877;-71
2022/05/26 07:31:51;;;;;;;;;0.00;0.00;;;;;24.02;100.00;101975.56;4990296;28;46081;-71
2022/05/26 07:34:18;;;;;;;;;0.00;0.00;;;;;23.83;100.00;101978.72;5011278;28;47047;-73
2022/05/26 07:42:14;;;;;;;;;1.00;1.00;;;;;22.64;100.00;102017.78;5013623;28;45458;-71
2022/05/26 07:44:44;;;;;;;;;1.67;1.67;;;;;22.35;100.00;102024.38;5015061;28;45498;-71
2022/05/26 07:47:10;;;;;;;;;2.67;1.00;;;;;21.98;100.00;102010.94;5006825;28;45952;-69
2022/05/26 07:49:41;;;;;;;;;1.33;1.33;;;;;21.72;100.00;102014.41;5010045;28;45771;-71
2022/05/26 07:52:07;;;;;;;;;2.33;1.67;;;;;21.55;100.00;102031.13;5011716;28;45708;-71
2022/05/26 07:54:32;;;;;;;;;4.33;3.00;;;;;21.45;100.00;102024.25;4994929;28;46106;-71
2022/05/26 07:56:59;;;;;;;;;4.00;2.33;;;;;21.40;100.00;102021.34;5012529;28;45947;-72
2022/05/26 07:59:25;;;;;;;;;2.00;1.00;;;;;21.30;100.00;102037.88;5012610;28;45639;-70
2022/05/26 08:01:51;;;;;;;;;3.00;3.00;;;;;21.21;100.00;102031.84;5012753;28;46057;-71
2022/05/26 08:04:17;;;;;;;;;4.00;2.67;;;;;21.21;100.00;102028.22;5012577;28;45755;-71
2022/05/26 08:06:47;;;;;;;;;2.33;2.33;;;;;21.22;100.00;102039.13;5012923;28;45375;-70
2022/05/26 08:09:18;;;;;;;;;4.33;1.33;;;;;21.25;100.00;102044.22;4994407;28;45762;-72
2022/05/26 08:11:45;;;;;;;;;3.67;2.00;;;;;21.17;100.00;102047.41;5012687;28;46380;-71
2022/05/26 08:14:11;;;;;;;;;3.67;3.67;;;;;21.14;100.00;102050.72;5013003;28;45706;-76
2022/05/26 08:16:38;;;;;;;;;3.00;2.00;;;;;21.23;100.00;102052.00;5013310;28;45551;-75
2022/05/26 08:19:04;;;;;;;;;1.00;1.00;;;;;21.28;100.00;102054.88;5012355;28;45577;-75
2022/05/26 08:21:30;;;;;;;;;2.33;2.33;;;;;21.39;100.00;102039.19;5013626;28;45950;-74
2022/05/26 08:23:55;;;;;;;;;1.33;1.33;;;;;21.62;100.00;102043.84;5014311;28;45494;-75
2022/05/26 08:26:20;;;;;;;;;3.00;2.33;;;;;21.92;100.00;102041.84;4997336;28;45662;-76
2022/05/26 08:28:46;;;;;;;;;5.00;2.00;;;;;22.36;100.00;102040.03;5013960;28;45647;-75
2022/05/26 08:31:15;;;;;;;;;3.00;2.00;;;;;23.11;100.00;102044.41;4998932;28;46120;-73
2022/05/26 08:33:41;;;;;;;;;3.33;3.33;;;;;24.39;100.00;102039.16;5014907;28;45329;-73
2022/05/26 08:36:12;;;;;;;;;4.00;4.00;;;;;25.16;100.00;102033.91;5014830;28;45518;-75
2022/05/26 08:38:38;;;;;;;;;4.00;2.00;;;;;25.82;100.00;102029.53;5014418;28;45367;-73
2022/05/26 08:41:05;;;;;;;;;3.00;3.00;;;;;26.42;100.00;102032.56;5014477;28;45348;-74
2022/05/26 08:43:40;;;;;;;;;1.67;1.67;;;;;26.91;100.00;102031.88;5013825;28;45710;-74
2022/05/26 08:46:09;;;;;;;;;4.00;2.67;;;;;27.33;100.00;102034.50;5013467;28;45569;-74
2022/05/26 08:48:40;;;;;;;;;2.67;2.00;;;;;27.67;100.00;102036.53;5014297;28;45378;-74
2022/05/26 08:51:09;;;;;;;;;2.00;2.00;;;;;28.00;100.00;102032.03;5013966;28;45752;-73
2022/05/26 08:53:39;;;;;;;;;3.25;3.25;;;;;28.20;99.84;102033.00;5014094;28;45645;-74
2022/05/26 08:56:07;;;;;;;;;4.00;2.67;;;;;28.28;96.40;102024.72;5014435;28;45581;-73
2022/05/26 08:58:41;;;;;;;;;2.75;2.25;;;;;28.24;95.69;102040.56;5013816;28;45443;-73
2022/05/26 09:01:10;;;;;;;;;3.33;3.00;;;;;28.03;94.16;102044.72;5013768;28;46331;-75
2022/05/26 09:03:36;;;;;;;;;10.00;6.33;;;;;28.01;96.51;102045.03;5008690;28;45368;-73
2022/05/26 09:06:16;;;;;;;;;6.67;6.00;;;;;28.02;98.39;102043.03;5004210;28;45387;-74
2022/05/26 09:14:23;;;;;;;;;2.75;2.75;;;;;27.31;96.12;102054.50;5009949;28;45641;-75
2022/05/26 09:16:49;;;;;;;;;2.00;2.00;;;;;27.16;96.10;102052.59;5010155;28;45383;-76
2022/05/26 09:19:17;;;;;;;;;3.33;3.00;;;;;27.02;96.68;102055.22;5009147;28;45484;-74
2022/05/26 09:21:46;;;;;;;;;1.75;1.75;;;;;26.85;95.53;102069.63;5009154;28;45504;-76
2022/05/26 09:24:19;;;;;;;;;2.00;2.00;;;;;26.71;97.38;102057.31;5013592;28;45460;-76
2022/05/26 09:26:47;;;;;;;;;1.25;1.25;;;;;26.51;95.29;102047.78;5009198;28;45440;-75
2022/05/26 09:29:14;;;;;;;;;3.00;3.00;;;;;26.66;93.08;102062.91;5009911;28;45799;-75
2022/05/26 09:31:49;;;;;;;;;5.00;4.67;;;;;27.48;91.86;102063.41;5009866;28;47181;-75
2022/05/26 09:34:24;;;;;;;;;6.00;4.67;;;;;28.75;86.62;102064.56;5012572;28;45896;-74
2022/05/26 09:37:03;;;;;;;;;14.67;12.33;;;;;29.59;81.08;102072.50;4994917;28;45717;-74
2022/05/26 09:39:37;;;;;;;;;2.67;2.67;;;;;30.07;76.67;102076.28;5008254;28;45790;-74
2022/05/26 09:42:27;;;;;;;;;5.00;5.00;;;;;30.75;74.75;102074.75;5008479;28;46167;-75
2022/05/26 09:45:01;;;;;;;;;1.25;1.25;;;;;31.78;69.92;102083.00;4991992;28;45813;-74
2022/05/26 09:47:37;;;;;;;;;1.00;1.00;;;;;33.79;63.44;102075.31;4995080;28;45679;-75
2022/05/26 09:50:08;;;;;;;;;1.00;1.00;;;;;34.46;57.68;102087.25;5011071;28;46200;-74
2022/05/26 09:52:46;;;;;;;;;2.75;2.75;;;;;35.37;56.33;102080.44;5007832;28;46116;-74
2022/05/26 09:55:19;;;;;;;;;1.00;1.00;;;;;37.25;50.19;102083.09;5003024;28;45785;-74
2022/05/26 09:57:45;;;;;;;;;2.00;2.00;;;;;38.45;42.92;102076.75;5011468;28;45787;-75
2022/05/26 10:00:33;;;;;;;;;1.00;1.00;;;;;39.40;40.88;102084.41;5007315;28;45833;-75
2022/05/26 10:03:03;;;;;;;;;1.00;1.00;;;;;40.51;36.24;102088.75;5009157;28;45645;-75
2022/05/26 10:05:50;;;;;;;;;1.00;1.00;;;;;40.36;34.14;102083.91;5010796;28;45541;-76
2022/05/26 10:08:24;;;;;;;;;1.00;1.00;;;;;39.45;36.50;102084.13;5006076;28;45839;-75
2022/05/26 10:10:54;;;;;;;;;1.00;1.00;;;;;38.57;39.16;102087.31;5011024;28;45628;-74
2022/05/26 10:13:22;;;;;;;;;1.00;1.00;;;;;37.84;40.82;102092.25;5013083;28;46308;-75
2022/05/26 10:16:11;;;;;;;;;0.25;0.25;;;;;36.98;43.00;102096.06;5007586;28;45370;-74
2022/05/26 10:18:48;;;;;;;;;1.00;1.00;;;;;36.08;46.19;102085.22;5008280;28;45860;-76
2022/05/26 10:21:59;;;;;;;;;2.00;1.00;;;;;35.16;51.71;102095.50;5007647;28;45383;-75
2022/05/26 10:24:31;;;;;;;;;0.50;0.50;;;;;35.21;51.00;102092.41;4968018;28;45798;-75
2022/05/26 10:27:27;;;;;;;;;1.25;1.25;;;;;35.95;49.84;102095.75;4969764;28;45377;-76
2022/05/26 10:30:15;;;;;;;;;1.00;1.00;;;;;36.95;49.59;102088.22;4977645;28;45654;-75
2022/05/26 10:32:52;;;;;;;;;1.50;1.50;;;;;37.58;45.03;102080.03;5008025;28;45399;-73
2022/05/26 10:35:34;;;;;;;;;0.00;0.00;;;;;38.48;38.14;102082.56;4990816;28;45542;-75
2022/05/26 10:38:16;;;;;;;;;0.00;0.00;;;;;38.48;37.74;102076.03;5006655;28;45616;-75
2022/05/26 10:40:50;;;;;;;;;0.50;0.50;;;;;37.72;39.69;102073.91;5011224;28;45688;-74
2022/05/26 10:43:39;;;;;;;;;1.00;1.00;;;;;37.78;42.00;102075.31;5011874;28;45731;-74
2022/05/26 10:46:07;;;;;;;;;1.50;1.50;;;;;37.92;40.56;102071.19;5010245;28;46009;-76
2022/05/26 10:48:48;;;;;;;;;1.00;1.00;;;;;37.39;40.73;102077.81;5009946;28;45660;-75
2022/05/26 10:54:54;;;;;;;;;1.75;0.00;;;;;35.47;44.94;102083.72;4993490;28;45741;-71
2022/05/26 10:57:26;;;;;;;;;0.25;0.25;;;;;34.61;49.63;102078.16;5012457;28;45299;-72
2022/05/26 11:00:11;;;;;;;;;1.00;1.00;;;;;33.80;52.84;102076.97;5010243;28;45824;-71
2022/05/26 11:03:09;;;;;;;;;1.00;1.00;;;;;33.01;55.82;102084.53;5007369;28;45323;-71
2022/05/26 11:05:44;;;;;;;;;0.75;0.75;;;;;32.58;57.15;102079.50;5004942;28;45564;-73
2022/05/26 11:08:18;;;;;;;;;0.25;0.25;;;;;32.33;58.97;102088.41;5008855;28;45469;-73
2022/05/26 11:10:47;;;;;;;;;0.00;0.00;;;;;32.37;58.87;102094.28;5007645;28;45339;-73
2022/05/26 11:13:38;;;;;;;;;1.00;1.00;;;;;31.96;60.24;102092.47;5010502;28;45449;-70
2022/05/26 11:19:28;;;;;;;;;2.00;2.00;;;;;31.96;61.56;102086.78;5003699;28;45475;-72
2022/05/26 11:21:54;;;;;;;;;1.00;1.00;;;;;31.98;61.24;102079.66;5004267;28;45769;-72
2022/05/26 11:24:23;;;;;;;;;2.00;2.00;;;;;31.81;61.53;102077.53;5009048;28;46263;-72
2022/05/26 11:26:55;;;;;;;;;1.00;1.00;;;;;31.90;61.69;102076.75;5008719;28;45762;-72
2022/05/26 11:29:30;;;;;;;;;1.00;1.00;;;;;31.92;61.39;102068.75;5008364;28;45779;-73
2022/05/26 11:38:28;;;;;;;;;0.00;0.00;;;;;31.02;65.45;102069.41;5000292;28;45718;-73
2022/05/26 11:41:15;;;;;;;;;1.00;1.00;;;;;30.90;66.18;102058.56;5006179;28;45770;-73
2022/05/26 11:44:00;;;;;;;;;0.75;0.75;;;;;30.87;66.41;102056.38;5010499;28;45257;-72
2022/05/26 11:46:46;;;;;;;;;1.00;1.00;;;;;30.81;66.63;102055.66;5009671;28;45413;-71
2022/05/26 11:49:42;;;;;;;;;2.00;1.25;;;;;30.86;67.15;102057.56;5009899;28;45491;-73
2022/05/26 11:52:22;;;;;;;;;1.00;1.00;;;;;30.79;65.85;102053.16;5009137;28;46183;-71
2022/05/26 11:54:55;;;;;;;;;2.00;0.00;;;;;30.62;68.01;102058.59;5008911;28;45326;-74
2022/05/26 11:57:53;;;;;;;;;0.75;0.75;;;;;30.22;68.19;102055.34;5012080;28;45328;-71
2022/05/26 12:00:40;;;;;;;;;1.00;0.00;;;;;29.76;68.32;102062.63;5006375;28;46111;-70
2022/05/26 12:03:23;;;;;;;;;0.00;0.00;;;;;29.40;70.56;102058.38;5009302;28;45558;-73
2022/05/26 12:06:14;;;;;;;;;0.00;0.00;;;;;29.05;72.66;102046.41;5011364;28;45655;-72
2022/05/26 12:08:42;;;;;;;;;2.00;2.00;;;;;28.91;73.60;102062.41;5011893;28;45570;-70
2022/05/26 12:11:10;;;;;;;;;0.50;0.50;;;;;28.74;71.96;102054.41;5011610;28;45480;-73
2022/05/26 12:13:39;;;;;;;;;0.00;0.00;;;;;28.69;72.85;102048.84;4986190;28;48518;-72
2022/05/26 12:16:18;;;;;;;;;0.00;0.00;;;;;28.68;73.85;102048.00;5011885;28;45776;-72
2022/05/26 12:18:49;;;;;;;;;0.00;0.00;;;;;28.76;75.07;102043.69;5011865;28;45659;-71
2022/05/26 12:21:37;;;;;;;;;1.25;0.00;;;;;28.68;75.47;102039.53;4996152;28;45761;-71
2022/05/26 12:24:36;;;;;;;;;0.00;0.00;;;;;28.48;76.10;102046.22;4998678;28;48167;-73